createdAt,value
2022-10-05T00:04:04.141Z,0
2022-10-05T00:09:21.711Z,0
2022-10-05T00:14:39.018Z,0
2022-10-05T00:19:56.429Z,0
2022-10-05T00:25:13.742Z,0
2022-10-05T00:30:30.848Z,0
2022-10-05T00:35:47.994Z,0
2022-10-05T00:41:05.245Z,0
2022-10-05T00:46:22.610Z,0
2022-10-05T00:51:40.193Z,0
2022-10-05T00:56:57.818Z,0
2022-10-05T01:02:15.521Z,0
2022-10-05T01:07:32.921Z,0
2022-10-05T01:12:50.261Z,0
2022-10-05T01:18:07.591Z,0
2022-10-05T01:23:24.840Z,0
2022-10-05T01:33:46.693Z,0
2022-10-05T01:39:03.699Z,0
2022-10-05T01:44:20.985Z,0
2022-10-05T01:49:38.516Z,0
2022-10-05T01:54:55.774Z,0
2022-10-05T02:00:13.405Z,0
2022-10-05T02:05:30.643Z,0
2022-10-05T02:10:47.836Z,0
2022-10-05T02:16:10.275Z,0
2022-10-05T02:21:27.760Z,0
2022-10-05T02:26:45.271Z,0
2022-10-05T02:32:02.877Z,0
2022-10-05T02:37:26.371Z,0
2022-10-05T02:42:43.910Z,0
2022-10-05T02:48:03.346Z,0
2022-10-05T02:53:20.707Z,0
2022-10-05T02:58:41.134Z,0
2022-10-05T03:03:59.951Z,0
2022-10-05T03:09:17.187Z,0
2022-10-05T03:14:34.706Z,0
2022-10-05T03:19:54.589Z,0
2022-10-05T03:30:29.908Z,0
2022-10-05T03:35:47.302Z,0
2022-10-05T03:41:04.579Z,0
2022-10-05T03:46:24.588Z,0
2022-10-05T03:51:41.700Z,0
2022-10-05T03:56:58.959Z,0
2022-10-05T04:02:20.146Z,0
2022-10-05T04:07:37.611Z,0
2022-10-05T04:12:54.939Z,0
2022-10-05T04:18:12.249Z,0
2022-10-05T04:23:38.736Z,0
2022-10-05T04:28:56.389Z,0
2022-10-05T04:34:14.198Z,0
2022-10-05T04:39:31.406Z,0
2022-10-05T04:44:48.818Z,0
2022-10-05T04:50:06.220Z,0
2022-10-05T05:00:44.006Z,0
2022-10-05T05:06:17.876Z,0.3
2022-10-05T05:11:36.099Z,1.4
2022-10-05T05:16:53.384Z,0
2022-10-05T05:22:17.861Z,0.5
2022-10-05T05:27:35.101Z,28.7
2022-10-05T05:33:01.101Z,64.6
2022-10-05T05:38:18.821Z,127.5
2022-10-05T05:43:35.768Z,245
2022-10-05T05:48:52.934Z,435
2022-10-05T05:54:13.142Z,671.2
2022-10-05T05:59:30.972Z,990
2022-10-05T06:04:48.095Z,1257.1
2022-10-05T06:10:05.955Z,1523.3
2022-10-05T06:15:23.384Z,1618.3
2022-10-05T06:20:40.284Z,1587.1
2022-10-05T06:25:57.288Z,1819.2
2022-10-05T06:31:14.505Z,2053.3
2022-10-05T06:36:31.676Z,1870.4
2022-10-05T06:41:49.011Z,2485
2022-10-05T06:47:07.226Z,2494.2
2022-10-05T06:52:24.482Z,2889.2
2022-10-05T06:57:41.514Z,3079.6
2022-10-05T07:02:58.430Z,2980.4
2022-10-05T07:08:15.688Z,3042.1
2022-10-05T07:13:32.662Z,2642.5
2022-10-05T07:18:49.562Z,3042.9
2022-10-05T07:34:49.479Z,4489.2
2022-10-05T07:40:06.909Z,4266.7
2022-10-05T07:45:24.167Z,5240.8
2022-10-05T07:50:41.450Z,6192.5
2022-10-05T07:56:01.922Z,6377.9
2022-10-05T08:06:42.041Z,5518.3
2022-10-05T08:11:58.960Z,5742.5
2022-10-05T08:28:13.551Z,7738.8
2022-10-05T08:33:33.427Z,7227.1
2022-10-05T08:38:51.347Z,8753.8
2022-10-05T08:44:10.822Z,9173.7
2022-10-05T08:49:30.614Z,9020
2022-10-05T09:00:08.605Z,10358.3
2022-10-05T09:05:25.720Z,8705.8
2022-10-05T09:10:45.646Z,9600.8
2022-10-05T09:17:20.492Z,10827.9
2022-10-05T09:22:38.430Z,10947.9
2022-10-05T10:22:35.489Z,20609.6
2022-10-05T13:37:35.538Z,11942.1
2022-10-05T13:43:15.661Z,12075.4
2022-10-05T13:48:32.663Z,12127.5
2022-10-05T13:53:49.618Z,10060.8
2022-10-05T13:59:10.661Z,10671.7
2022-10-05T14:04:27.373Z,10940
2022-10-05T14:15:03.975Z,9176.7
2022-10-05T14:20:21.032Z,9717.5
2022-10-05T14:25:39.494Z,8450.8
2022-10-05T14:30:58.979Z,7920
2022-10-05T14:36:15.959Z,7003.3
2022-10-05T14:41:32.467Z,6920
2022-10-05T14:46:48.716Z,3191.7
2022-10-05T14:52:04.171Z,2395
2022-10-05T14:57:44.384Z,2203.3
2022-10-05T15:03:01.517Z,2100
2022-10-05T15:08:18.049Z,2040.8
2022-10-05T15:13:42.173Z,2056.7
2022-10-05T15:18:58.864Z,2063.3
2022-10-05T15:24:16.072Z,2097.9
2022-10-05T15:29:33.429Z,2563.8
2022-10-05T15:35:35.497Z,2517.1
2022-10-05T15:40:52.974Z,2029.6
2022-10-05T15:46:10.140Z,2109.6
2022-10-05T15:51:27.042Z,1915.4
2022-10-05T15:56:43.853Z,1778.3
2022-10-05T16:02:00.739Z,1779.2
2022-10-05T16:07:17.755Z,1801.2
2022-10-05T16:12:37.613Z,1746.7
2022-10-05T16:17:57.768Z,1404.2
2022-10-05T16:23:14.715Z,1333.7
2022-10-05T16:28:31.737Z,1568.3
2022-10-05T16:33:49.420Z,1202.9
2022-10-05T16:39:06.129Z,812.5
2022-10-05T16:44:26.173Z,717.9
2022-10-05T16:49:43.055Z,550
2022-10-05T16:54:59.783Z,415.8
2022-10-05T17:05:36.095Z,193.3
2022-10-05T17:10:55.285Z,111.2
2022-10-05T17:16:12.318Z,57.9
2022-10-05T17:21:29.507Z,22.9
2022-10-05T17:26:46.895Z,7.7
2022-10-05T17:37:27.412Z,0.5
2022-10-05T17:42:44.898Z,0.1
2022-10-05T17:48:02.222Z,0
2022-10-05T17:53:22.379Z,0
2022-10-05T17:58:39.688Z,0
2022-10-05T18:03:57.088Z,0
2022-10-05T18:09:14.477Z,0
2022-10-05T18:19:49.088Z,0
2022-10-05T18:25:06.476Z,0
2022-10-05T18:30:23.771Z,0
2022-10-05T18:35:42.440Z,0
2022-10-05T18:40:59.548Z,0
2022-10-05T18:46:16.886Z,0
2022-10-05T18:51:43.131Z,0
2022-10-05T18:57:00.358Z,0
2022-10-05T19:02:18.347Z,0
2022-10-05T19:07:35.821Z,0
2022-10-05T19:12:55.355Z,0
2022-10-05T19:18:12.877Z,0
2022-10-05T19:23:35.748Z,0
2022-10-05T19:28:53.371Z,0
2022-10-05T19:34:13.255Z,0
2022-10-05T19:39:30.805Z,0
2022-10-05T19:44:48.019Z,0
2022-10-05T19:50:05.655Z,0
2022-10-05T19:55:23.221Z,0
2022-10-05T20:00:48.560Z,0
2022-10-05T20:06:06.079Z,0
2022-10-05T20:11:23.122Z,0
2022-10-05T20:22:01.128Z,0
2022-10-05T20:27:18.378Z,0
2022-10-05T20:32:35.866Z,0
2022-10-05T20:43:03.106Z,0
2022-10-05T20:53:40.981Z,0
2022-10-05T20:58:58.430Z,0
2022-10-05T21:04:18.111Z,0
2022-10-05T21:14:59.293Z,0
2022-10-05T21:20:16.897Z,0
2022-10-05T21:25:34.363Z,0
2022-10-05T21:30:51.533Z,0
2022-10-05T21:36:09.120Z,0
2022-10-05T21:41:26.345Z,0
2022-10-05T21:46:43.457Z,0
2022-10-05T21:52:01.082Z,0
2022-10-05T21:57:18.590Z,0
2022-10-05T22:02:36.242Z,0
2022-10-05T22:08:00.774Z,0
2022-10-05T22:13:18.218Z,0
2022-10-05T22:18:35.534Z,0
2022-10-05T22:23:53.140Z,0
2022-10-05T22:29:10.541Z,0
2022-10-05T22:34:27.914Z,0
2022-10-05T22:45:05.887Z,0
2022-10-05T22:50:23.406Z,0
2022-10-05T22:55:40.429Z,0
2022-10-05T23:00:58.817Z,0
2022-10-05T23:06:16.918Z,0
2022-10-05T23:16:54.693Z,0
2022-10-05T23:22:17.568Z,0
2022-10-05T23:27:34.822Z,0
2022-10-05T23:32:52.015Z,0
2022-10-05T23:38:09.397Z,0
2022-10-05T23:43:26.625Z,0
2022-10-05T23:48:43.738Z,0
2022-10-05T23:54:10.829Z,0
2022-10-05T23:59:28.341Z,0
